Time;durP1;ratioP1;P1;durP2;ratioP2;P2;SDS_P1;SDS_P2;PMS_P1;PMS_P2;Temp;Humidity;BMP_temperature;BMP_pressure;BME280_temperature;BME280_humidity;BME280_pressure;Samples;Min_cycle;Max_cycle;Signal;HPM_P1;HPM_P2
2021/10/12 00:01:33;;;;;;;12.52;6.95;;;11.40;84.80;;;;;;5073028;28;20052;-77
2021/10/12 00:03:59;;;;;;;9.40;6.18;;;11.30;85.20;;;;;;5071179;28;20012;-77
2021/10/12 00:06:25;;;;;;;11.45;6.60;;;11.30;85.10;;;;;;5071528;28;20050;-77
2021/10/12 00:08:50;;;;;;;11.95;7.03;;;11.30;85.20;;;;;;5071897;28;20025;-77
2021/10/12 00:11:16;;;;;;;11.38;6.93;;;11.20;85.60;;;;;;5072719;28;20054;-77
2021/10/12 00:13:42;;;;;;;11.23;6.70;;;11.10;85.90;;;;;;5068930;28;20025;-77
2021/10/12 00:16:08;;;;;;;11.15;6.60;;;11.20;86.10;;;;;;5069723;28;20055;-77
2021/10/12 00:18:34;;;;;;;10.80;6.78;;;11.10;86.20;;;;;;5071356;28;20028;-78
2021/10/12 00:20:59;;;;;;;9.70;6.97;;;11.00;86.20;;;;;;5072326;28;20043;-78
2021/10/12 00:23:25;;;;;;;15.13;6.05;;;11.00;86.10;;;;;;5072950;28;20372;-77
2021/10/12 00:25:51;;;;;;;11.18;6.55;;;11.00;86.40;;;;;;5068496;28;20387;-77
2021/10/12 00:28:16;;;;;;;11.45;6.60;;;11.00;87.30;;;;;;5072022;28;20036;-77
2021/10/12 00:30:42;;;;;;;10.30;6.82;;;10.90;87.90;;;;;;5072097;28;20506;-77
2021/10/12 00:33:08;;;;;;;11.32;6.70;;;10.80;88.30;;;;;;5071600;28;20021;-77
2021/10/12 00:35:33;;;;;;;14.68;6.47;;;10.70;89.30;;;;;;5066090;28;20024;-77
2021/10/12 00:37:59;;;;;;;10.55;6.95;;;10.50;89.70;;;;;;5071834;28;20024;-77
2021/10/12 00:40:25;;;;;;;10.48;7.00;;;10.50;90.20;;;;;;5071816;28;20029;-77
2021/10/12 00:42:51;;;;;;;8.23;6.40;;;10.40;90.60;;;;;;5071598;28;20032;-77
2021/10/12 00:45:17;;;;;;;11.65;6.75;;;10.30;90.40;;;;;;5070343;28;20521;-76
2021/10/12 00:48:04;;;;;;;17.52;7.50;;;10.30;90.50;;;;;;5069282;28;20079;-77
2021/10/12 00:50:31;;;;;;;10.60;7.30;;;10.20;90.60;;;;;;5071696;28;20029;-77
2021/10/12 00:52:57;;;;;;;10.85;7.85;;;10.20;90.50;;;;;;5070739;28;20507;-77
2021/10/12 00:55:23;;;;;;;9.98;7.38;;;10.20;90.70;;;;;;5069996;28;20095;-77
2021/10/12 00:57:49;;;;;;;11.60;7.50;;;10.10;90.90;;;;;;5068721;28;20048;-77
2021/10/12 01:00:14;;;;;;;12.77;7.38;;;10.00;91.10;;;;;;5071293;28;20055;-77
2021/10/12 01:02:40;;;;;;;12.27;7.25;;;10.00;91.50;;;;;;5069789;28;20069;-78
2021/10/12 01:05:07;;;;;;;15.60;7.32;;;9.90;91.80;;;;;;5070843;28;20024;-77
2021/10/12 01:07:33;;;;;;;11.38;7.65;;;9.80;92.10;;;;;;5067406;28;20426;-77
2021/10/12 01:09:59;;;;;;;11.32;7.47;;;9.80;92.20;;;;;;5069360;28;20023;-77
2021/10/12 01:12:25;;;;;;;10.50;7.63;;;9.70;92.20;;;;;;5070970;28;20029;-77
2021/10/12 01:14:51;;;;;;;11.60;7.30;;;9.70;92.20;;;;;;5062127;28;20140;-77
2021/10/12 01:17:17;;;;;;;13.50;7.50;;;9.70;92.30;;;;;;5068885;28;20467;-77
2021/10/12 01:19:46;;;;;;;10.20;7.47;;;9.80;92.40;;;;;;5069367;28;20024;-77
2021/10/12 01:22:11;;;;;;;13.10;7.90;;;9.90;92.30;;;;;;5069734;28;20028;-77
2021/10/12 01:24:37;;;;;;;9.85;7.43;;;9.90;92.20;;;;;;5066816;28;20074;-76
2021/10/12 01:27:03;;;;;;;13.20;8.05;;;10.00;92.30;;;;;;5068821;28;20103;-76
2021/10/12 01:29:29;;;;;;;12.00;8.13;;;10.00;92.70;;;;;;5070353;28;20024;-77
2021/10/12 01:31:55;;;;;;;11.23;7.35;;;10.10;92.40;;;;;;5068698;28;20046;-77
2021/10/12 01:34:21;;;;;;;11.80;7.32;;;10.10;92.40;;;;;;5067704;28;20483;-77
2021/10/12 01:36:48;;;;;;;10.63;7.28;;;10.00;91.90;;;;;;5069997;28;20039;-76
2021/10/12 01:39:16;;;;;;;11.32;6.93;;;10.10;91.80;;;;;;5070054;28;20052;-77
2021/10/12 01:41:42;;;;;;;11.07;7.43;;;10.10;91.60;;;;;;5069577;28;20016;-77
2021/10/12 01:44:13;;;;;;;11.55;6.93;;;10.10;92.00;;;;;;5069140;28;20115;-76
2021/10/12 01:46:39;;;;;;;10.85;7.10;;;10.10;91.60;;;;;;5068810;28;20522;-77
2021/10/12 01:49:05;;;;;;;12.05;7.10;;;10.20;91.70;;;;;;5070064;28;20028;-77
2021/10/12 01:51:31;;;;;;;13.48;7.68;;;10.20;91.50;;;;;;5070794;28;20367;-77
2021/10/12 01:53:58;;;;;;;13.30;7.45;;;10.20;91.60;;;;;;5068717;28;20119;-77
2021/10/12 01:56:24;;;;;;;11.38;7.13;;;10.20;91.40;;;;;;5069196;28;20027;-77
2021/10/12 01:58:50;;;;;;;11.23;7.18;;;10.10;91.40;;;;;;5064078;28;20119;-77
2021/10/12 02:01:24;;;;;;;14.43;7.45;;;10.10;92.10;;;;;;5070164;28;20090;-77
2021/10/12 02:03:50;;;;;;;11.02;7.07;;;10.20;91.40;;;;;;5065525;28;20024;-77
2021/10/12 02:06:16;;;;;;;10.48;7.20;;;10.20;91.30;;;;;;5070892;28;20017;-77
2021/10/12 02:08:42;;;;;;;10.63;7.00;;;10.10;91.20;;;;;;5068318;28;20051;-77
2021/10/12 02:11:08;;;;;;;11.52;7.63;;;10.10;91.30;;;;;;5068537;28;20544;-77
2021/10/12 02:13:34;;;;;;;11.00;6.90;;;10.10;91.40;;;;;;5069652;28;20037;-77
2021/10/12 02:16:00;;;;;;;12.77;7.32;;;10.10;91.40;;;;;;5066914;28;20490;-77
2021/10/12 02:18:28;;;;;;;11.18;6.88;;;10.00;91.40;;;;;;5066178;28;20028;-77
2021/10/12 02:20:54;;;;;;;10.68;6.50;;;10.00;91.80;;;;;;5069189;28;20021;-77
2021/10/12 02:23:20;;;;;;;12.23;7.13;;;9.90;91.40;;;;;;5070284;28;20031;-78
2021/10/12 02:25:45;;;;;;;14.63;7.30;;;9.80;91.50;;;;;;5069937;28;20028;-77
2021/10/12 02:28:11;;;;;;;13.00;7.63;;;9.70;92.00;;;;;;5069018;28;20115;-77
2021/10/12 02:30:37;;;;;;;9.50;6.47;;;9.60;92.40;;;;;;5069887;28;20368;-78
2021/10/12 02:33:04;;;;;;;13.52;8.43;;;9.50;92.40;;;;;;5069941;28;20028;-77
2021/10/12 02:35:30;;;;;;;16.52;7.78;;;9.50;91.90;;;;;;5070147;28;20071;-77
2021/10/12 02:37:56;;;;;;;17.85;7.13;;;9.50;92.20;;;;;;5067743;28;20387;-77
2021/10/12 02:40:22;;;;;;;10.88;6.32;;;9.50;91.40;;;;;;5063157;28;20032;-77
2021/10/12 02:42:48;;;;;;;8.68;6.20;;;9.60;91.50;;;;;;5068634;28;20032;-77
2021/10/12 02:45:13;;;;;;;10.80;6.93;;;9.60;91.20;;;;;;5070555;28;20084;-77
2021/10/12 02:47:39;;;;;;;10.10;6.68;;;9.70;90.90;;;;;;5072531;28;20052;-77
2021/10/12 02:50:07;;;;;;;13.35;6.53;;;9.80;91.20;;;;;;5072470;28;20025;-78
2021/10/12 02:52:33;;;;;;;7.28;6.00;;;9.80;90.20;;;;;;5062942;28;20414;-77
2021/10/12 02:54:59;;;;;;;9.02;5.68;;;10.00;89.90;;;;;;5073535;28;20021;-77
2021/10/12 02:57:25;;;;;;;10.90;6.72;;;10.10;89.50;;;;;;5073464;28;20115;-77
2021/10/12 02:59:51;;;;;;;9.55;6.40;;;10.20;89.50;;;;;;5073728;28;20570;-77
2021/10/12 03:02:17;;;;;;;10.65;6.10;;;10.20;89.60;;;;;;5073567;28;20029;-77
2021/10/12 03:04:42;;;;;;;11.45;5.93;;;10.10;89.90;;;;;;5073346;28;20025;-77
2021/10/12 03:07:08;;;;;;;8.05;5.90;;;10.10;88.30;;;;;;5073664;28;20123;-77
2021/10/12 03:09:34;;;;;;;11.07;6.72;;;10.10;89.50;;;;;;5073106;28;20074;-77
2021/10/12 03:12:00;;;;;;;7.00;6.00;;;10.00;90.20;;;;;;5072332;28;20028;-77
2021/10/12 03:14:26;;;;;;;9.20;6.30;;;9.90;90.40;;;;;;5072897;28;20060;-77
2021/10/12 03:16:51;;;;;;;10.27;6.03;;;9.90;90.50;;;;;;5073898;28;20032;-77
2021/10/12 03:19:17;;;;;;;8.05;5.90;;;9.90;90.50;;;;;;5072400;28;20116;-77
2021/10/12 03:21:59;;;;;;;9.95;6.20;;;9.90;90.40;;;;;;5073770;28;20024;-77
2021/10/12 03:24:25;;;;;;;9.75;6.28;;;9.90;90.20;;;;;;5071422;28;20021;-77
2021/10/12 03:26:51;;;;;;;9.25;6.22;;;9.90;90.20;;;;;;5073287;28;20040;-77
2021/10/12 03:29:16;;;;;;;13.65;5.85;;;10.00;90.00;;;;;;5072801;28;20040;-77
2021/10/12 03:31:42;;;;;;;8.35;5.82;;;10.00;87.90;;;;;;5071939;28;20429;-77
2021/10/12 03:34:08;;;;;;;8.63;5.57;;;10.10;89.00;;;;;;5072356;28;20032;-77
2021/10/12 03:36:33;;;;;;;9.88;6.22;;;10.10;89.20;;;;;;5072891;28;20056;-77
2021/10/12 03:38:59;;;;;;;7.55;5.70;;;10.00;90.20;;;;;;5065222;28;20040;-77
2021/10/12 03:41:25;;;;;;;8.25;6.07;;;10.00;90.10;;;;;;5072101;28;20115;-77
2021/10/12 03:43:51;;;;;;;10.88;5.82;;;9.90;90.10;;;;;;5072177;28;20031;-77
2021/10/12 03:46:17;;;;;;;12.73;6.38;;;9.90;90.10;;;;;;5073127;28;20129;-77
2021/10/12 03:48:42;;;;;;;8.00;5.85;;;9.90;90.40;;;;;;5071730;28;20035;-77
2021/10/12 03:51:08;;;;;;;10.85;6.72;;;9.90;90.30;;;;;;5073065;28;20409;-77
2021/10/12 03:53:37;;;;;;;16.08;6.88;;;9.90;90.20;;;;;;5072257;28;20028;-77
2021/10/12 03:56:04;;;;;;;10.77;6.28;;;10.00;89.70;;;;;;5072429;28;20024;-77
2021/10/12 03:58:29;;;;;;;9.90;6.10;;;10.00;89.70;;;;;;5072371;28;20024;-77
2021/10/12 04:00:55;;;;;;;12.90;6.07;;;10.10;89.20;;;;;;5072396;28;20450;-77
2021/10/12 04:03:21;;;;;;;8.60;5.57;;;10.10;87.90;;;;;;5072167;28;20028;-77
2021/10/12 04:05:47;;;;;;;11.65;5.88;;;10.20;89.10;;;;;;5072529;28;20426;-77
2021/10/12 04:08:13;;;;;;;8.85;6.05;;;10.30;87.60;;;;;;5072511;28;20128;-78
2021/10/12 04:10:39;;;;;;;11.10;5.70;;;10.40;84.20;;;;;;5069445;28;20174;-77
2021/10/12 04:13:05;;;;;;;9.95;5.85;;;10.60;83.50;;;;;;5072021;28;20028;-77
2021/10/12 04:15:31;;;;;;;9.77;6.15;;;10.70;83.30;;;;;;5071260;28;20104;-77
2021/10/12 04:17:57;;;;;;;12.40;5.95;;;10.60;83.80;;;;;;5066400;28;20028;-77
2021/10/12 04:20:25;;;;;;;8.68;5.45;;;10.70;85.60;;;;;;5065803;28;20009;-77
2021/10/12 04:22:51;;;;;;;9.52;5.68;;;10.60;84.70;;;;;;5086705;28;20035;-77
2021/10/12 04:25:17;;;;;;;8.93;5.85;;;10.70;83.90;;;;;;5067535;28;20027;-77
2021/10/12 04:27:43;;;;;;;8.27;5.93;;;10.70;84.30;;;;;;5067666;28;20502;-77
2021/10/12 04:30:09;;;;;;;9.60;6.18;;;10.70;83.20;;;;;;5070293;28;20021;-77
2021/10/12 04:32:35;;;;;;;10.23;6.07;;;10.70;84.30;;;;;;5067442;28;20255;-76
2021/10/12 04:35:01;;;;;;;11.25;5.95;;;10.70;84.00;;;;;;5071232;28;20418;-77
2021/10/12 04:37:26;;;;;;;10.38;5.70;;;10.60;84.10;;;;;;5071723;28;20089;-77
2021/10/12 04:39:52;;;;;;;9.35;6.50;;;10.60;85.10;;;;;;5071223;28;20024;-77
2021/10/12 04:42:18;;;;;;;10.57;5.70;;;10.50;86.60;;;;;;5070157;28;20020;-77
2021/10/12 04:44:47;;;;;;;10.95;6.28;;;10.40;86.40;;;;;;5066651;28;20025;-77
2021/10/12 04:47:13;;;;;;;7.55;5.75;;;10.30;86.60;;;;;;5068929;28;20045;-77
2021/10/12 04:49:39;;;;;;;9.85;6.30;;;10.20;86.20;;;;;;5065074;28;20094;-77
2021/10/12 04:52:05;;;;;;;9.65;5.90;;;10.20;86.40;;;;;;5070158;28;20025;-77
2021/10/12 04:54:30;;;;;;;9.23;6.28;;;10.20;86.70;;;;;;5069843;28;20032;-78
2021/10/12 04:56:56;;;;;;;8.30;5.78;;;10.20;86.40;;;;;;5070079;28;20471;-77
2021/10/12 04:59:22;;;;;;;11.00;5.55;;;10.10;86.50;;;;;;5069814;28;20060;-77
2021/10/12 05:01:47;;;;;;;11.02;6.05;;;10.10;86.40;;;;;;5068511;28;20127;-76
2021/10/12 05:04:13;;;;;;;10.68;5.63;;;10.10;86.00;;;;;;5065657;28;20021;-76
2021/10/12 05:06:39;;;;;;;8.77;5.53;;;10.10;87.10;;;;;;5070150;28;20033;-76
2021/10/12 05:09:04;;;;;;;9.85;5.85;;;10.20;86.10;;;;;;5069693;28;20024;-76
2021/10/12 05:11:30;;;;;;;10.05;6.30;;;10.20;86.60;;;;;;5067362;28;20032;-76
2021/10/12 05:13:57;;;;;;;8.27;6.07;;;10.20;87.00;;;;;;5067689;28;20070;-77
2021/10/12 05:16:23;;;;;;;6.75;5.35;;;10.20;87.50;;;;;;5068182;28;20028;-75
2021/10/12 05:18:53;;;;;;;9.68;5.90;;;10.10;87.60;;;;;;5070212;28;20024;-76
2021/10/12 05:21:20;;;;;;;8.25;5.25;;;10.10;88.00;;;;;;5068989;28;20487;-76
2021/10/12 05:23:46;;;;;;;8.93;6.07;;;10.10;87.20;;;;;;5063883;28;20059;-76
2021/10/12 05:26:12;;;;;;;8.95;5.82;;;10.10;87.90;;;;;;5063606;28;20467;-76
2021/10/12 05:28:38;;;;;;;9.80;5.45;;;10.10;87.10;;;;;;5064997;28;20041;-76
2021/10/12 05:31:03;;;;;;;10.02;6.18;;;10.20;87.00;;;;;;5067282;28;20024;-76
2021/10/12 05:33:29;;;;;;;9.50;5.78;;;10.20;87.70;;;;;;5059391;28;20497;-76
2021/10/12 05:35:55;;;;;;;8.93;5.72;;;10.20;86.90;;;;;;5070531;28;20035;-76
2021/10/12 05:38:21;;;;;;;10.45;6.00;;;10.30;87.00;;;;;;5069267;28;20020;-76
2021/10/12 05:40:48;;;;;;;9.02;5.55;;;10.30;86.50;;;;;;5064531;28;20047;-76
2021/10/12 05:43:15;;;;;;;8.07;5.85;;;10.30;86.60;;;;;;5070377;28;20024;-77
2021/10/12 05:45:41;;;;;;;7.53;5.30;;;10.30;87.10;;;;;;5069028;28;20053;-78
2021/10/12 05:48:08;;;;;;;11.38;6.53;;;10.40;87.00;;;;;;5070262;28;20039;-77
2021/10/12 05:50:40;;;;;;;9.65;5.63;;;10.40;87.30;;;;;;5068701;28;20047;-77
2021/10/12 05:53:20;;;;;;;8.23;5.78;;;10.40;87.20;;;;;;5072363;28;20024;-77
2021/10/12 05:58:14;;;;;;;38.53;15.25;;;10.40;87.20;;;;;;5070519;28;20028;-76
2021/10/12 06:00:40;;;;;;;62.92;22.92;;;10.50;86.40;;;;;;5069309;28;20029;-77
2021/10/12 06:03:06;;;;;;;22.70;9.30;;;10.50;85.50;;;;;;5070442;28;20508;-77
2021/10/12 06:05:33;;;;;;;15.05;6.68;;;10.70;82.00;;;;;;5068886;28;20020;-77
2021/10/12 06:07:59;;;;;;;9.65;6.00;;;11.00;81.30;;;;;;5058011;28;20131;-76
2021/10/12 06:10:25;;;;;;;11.93;5.78;;;11.10;82.10;;;;;;5070541;28;20103;-76
2021/10/12 06:12:51;;;;;;;8.70;5.88;;;11.20;81.60;;;;;;5070715;28;20108;-76
2021/10/12 06:15:17;;;;;;;14.07;5.72;;;11.30;82.20;;;;;;5069160;28;20036;-78
2021/10/12 06:17:42;;;;;;;7.78;5.00;;;11.30;83.40;;;;;;5068723;28;20032;-76
2021/10/12 06:20:09;;;;;;;10.82;5.65;;;11.40;81.40;;;;;;5070860;28;20031;-79
2021/10/12 06:22:34;;;;;;;7.93;5.78;;;11.40;81.70;;;;;;5074556;28;20059;-75
2021/10/12 06:25:00;;;;;;;9.85;5.38;;;11.60;82.40;;;;;;5072959;28;20051;-76
2021/10/12 06:27:25;;;;;;;8.02;6.03;;;11.70;81.60;;;;;;5074315;28;20620;-75
2021/10/12 06:29:51;;;;;;;10.52;5.75;;;11.80;81.20;;;;;;5074235;28;20029;-75
2021/10/12 06:32:17;;;;;;;8.00;5.03;;;12.00;80.60;;;;;;5072750;28;20112;-76
2021/10/12 06:34:43;;;;;;;11.88;6.30;;;12.20;76.50;;;;;;5072384;28;20074;-75
2021/10/12 06:37:08;;;;;;;19.17;8.80;;;12.40;77.70;;;;;;5070955;28;20486;-76
2021/10/12 06:39:35;;;;;;;14.23;6.40;;;12.50;76.20;;;;;;5073727;28;20487;-75
2021/10/12 06:42:02;;;;;;;11.07;6.05;;;12.60;75.80;;;;;;5070804;28;20020;-75
2021/10/12 06:44:27;;;;;;;8.70;5.28;;;12.70;76.90;;;;;;5070552;28;20028;-76
2021/10/12 06:46:53;;;;;;;9.32;5.38;;;12.70;78.20;;;;;;5071235;28;20395;-75
2021/10/12 06:49:19;;;;;;;13.23;5.40;;;12.70;78.60;;;;;;5070442;28;20036;-75
2021/10/12 06:51:45;;;;;;;8.02;4.30;;;12.70;77.40;;;;;;5071347;28;20025;-76
2021/10/12 06:54:10;;;;;;;9.27;5.68;;;12.80;76.40;;;;;;5070482;28;20436;-75
2021/10/12 06:56:36;;;;;;;26.02;11.48;;;12.70;77.60;;;;;;5068180;28;20017;-75
2021/10/12 06:59:01;;;;;;;23.50;9.88;;;12.80;75.30;;;;;;5070744;28;20030;-75
2021/10/12 07:01:27;;;;;;;18.75;7.65;;;12.80;76.90;;;;;;5071253;28;20059;-76
2021/10/12 07:03:53;;;;;;;27.55;11.25;;;12.80;75.70;;;;;;5070350;28;20499;-76
2021/10/12 07:06:19;;;;;;;20.60;8.63;;;12.80;77.60;;;;;;5070871;28;20070;-75
2021/10/12 07:08:44;;;;;;;8.40;5.72;;;12.80;77.40;;;;;;5069623;28;20047;-75
2021/10/12 07:11:10;;;;;;;12.23;5.93;;;12.70;75.70;;;;;;5069753;28;20052;-75
2021/10/12 07:13:36;;;;;;;10.18;5.93;;;12.70;74.00;;;;;;5070618;28;20050;-75
2021/10/12 07:16:02;;;;;;;11.63;5.13;;;12.60;72.70;;;;;;5071068;28;20058;-76
2021/10/12 07:18:27;;;;;;;26.05;5.88;;;12.70;74.10;;;;;;5070214;28;20111;-75
2021/10/12 07:20:53;;;;;;;6.05;5.18;;;12.90;75.60;;;;;;5069008;28;20029;-76
2021/10/12 07:23:19;;;;;;;9.68;5.57;;;13.10;72.20;;;;;;5071621;28;20028;-75
2021/10/12 07:25:45;;;;;;;7.53;5.30;;;13.30;72.40;;;;;;5070461;28;20028;-75
2021/10/12 07:28:11;;;;;;;8.63;5.25;;;13.40;72.50;;;;;;5070631;28;20035;-76
2021/10/12 07:30:37;;;;;;;6.60;4.82;;;13.50;73.30;;;;;;5070007;28;20029;-76
2021/10/12 07:33:03;;;;;;;8.38;4.90;;;13.80;71.00;;;;;;5069090;28;20048;-76
2021/10/12 07:35:28;;;;;;;10.35;5.75;;;13.90;71.00;;;;;;5070567;28;20028;-75
2021/10/12 07:37:55;;;;;;;9.77;5.50;;;14.10;72.50;;;;;;5069140;28;20035;-76
2021/10/12 07:40:21;;;;;;;7.28;4.72;;;14.20;72.70;;;;;;5067666;28;20024;-74
2021/10/12 07:42:47;;;;;;;16.70;5.00;;;14.40;71.80;;;;;;5070338;28;20529;-75
2021/10/12 07:45:13;;;;;;;7.20;4.95;;;14.60;72.60;;;;;;5065471;28;20032;-75
2021/10/12 07:47:39;;;;;;;6.20;4.65;;;14.70;72.00;;;;;;5065890;28;20461;-75
2021/10/12 07:50:06;;;;;;;7.22;4.50;;;14.80;70.10;;;;;;5070094;28;20021;-75
2021/10/12 07:52:33;;;;;;;6.65;4.25;;;14.80;71.60;;;;;;5069859;28;20466;-75
2021/10/12 07:55:13;;;;;;;7.50;4.63;;;14.90;70.40;;;;;;5070030;28;20022;-75
2021/10/12 07:57:39;;;;;;;6.97;4.88;;;14.90;73.40;;;;;;5067163;28;20029;-75
2021/10/12 08:00:06;;;;;;;10.48;4.93;;;15.00;68.00;;;;;;5069376;28;20044;-76
2021/10/12 08:02:31;;;;;;;11.38;5.03;;;15.00;66.70;;;;;;5068492;28;20017;-75
2021/10/12 08:04:57;;;;;;;11.60;4.97;;;15.00;66.50;;;;;;5069186;28;20032;-75
2021/10/12 08:07:23;;;;;;;11.23;4.55;;;15.10;67.50;;;;;;5069583;28;20024;-75
2021/10/12 08:09:49;;;;;;;10.27;4.57;;;15.00;66.90;;;;;;5068140;28;20032;-75
2021/10/12 08:12:15;;;;;;;9.35;4.85;;;14.90;67.40;;;;;;5069819;28;20028;-76
2021/10/12 08:14:44;;;;;;;7.70;4.97;;;14.90;67.90;;;;;;5069257;28;20036;-75
2021/10/12 08:17:10;;;;;;;12.38;4.97;;;14.90;67.80;;;;;;5068892;28;20555;-78
2021/10/12 08:19:36;;;;;;;8.45;5.10;;;15.10;69.70;;;;;;5071018;28;20028;-89
2021/10/12 08:22:02;;;;;;;7.55;4.40;;;15.20;67.10;;;;;;5046557;28;20275;-77
2021/10/12 08:24:28;;;;;;;7.60;4.85;;;15.40;66.70;;;;;;5072957;28;20024;-76
2021/10/12 08:26:54;;;;;;;9.50;4.55;;;15.60;66.50;;;;;;5063010;28;20517;-76
2021/10/12 08:29:20;;;;;;;7.03;4.65;;;15.70;64.30;;;;;;5067130;28;20099;-76
2021/10/12 08:31:46;;;;;;;10.98;4.95;;;15.70;64.60;;;;;;5067910;28;20028;-76
2021/10/12 08:34:13;;;;;;;10.68;5.30;;;15.70;66.80;;;;;;5066938;28;20036;-76
2021/10/12 08:36:41;;;;;;;8.93;4.72;;;15.70;66.00;;;;;;5064517;28;20525;-76
2021/10/12 08:39:08;;;;;;;8.45;4.20;;;15.80;64.30;;;;;;5068300;28;20086;-76
2021/10/12 08:41:47;;;;;;;8.50;4.55;;;15.80;64.20;;;;;;5069427;28;20020;-76
2021/10/12 08:44:13;;;;;;;6.68;4.40;;;16.10;65.20;;;;;;5067497;28;20041;-76
2021/10/12 08:46:40;;;;;;;10.73;4.70;;;16.30;63.90;;;;;;5069325;28;20070;-76
2021/10/12 08:49:06;;;;;;;6.90;4.30;;;16.50;62.80;;;;;;5068351;28;20036;-76
2021/10/12 08:51:32;;;;;;;7.03;4.28;;;16.70;62.50;;;;;;5067853;28;20033;-75
2021/10/12 08:53:58;;;;;;;7.45;4.07;;;16.90;61.50;;;;;;5069446;28;20032;-75
2021/10/12 08:56:24;;;;;;;10.35;4.22;;;17.00;61.20;;;;;;5069378;28;20031;-75
2021/10/12 08:58:49;;;;;;;19.08;4.20;;;17.20;59.50;;;;;;5068743;28;20032;-76
2021/10/12 09:01:19;;;;;;;11.85;4.28;;;17.10;58.40;;;;;;5069345;28;20910;-76
2021/10/12 09:06:30;;;;;;;7.47;3.42;;;17.10;61.80;;;;;;5068247;28;20024;-76
2021/10/12 09:09:04;;;;;;;10.55;4.53;;;17.00;58.10;;;;;;5067627;28;20525;-78
2021/10/12 09:11:32;;;;;;;6.30;3.80;;;17.20;61.50;;;;;;5067081;28;20086;-78
2021/10/12 09:14:04;;;;;;;8.73;3.65;;;17.20;61.30;;;;;;5067297;28;20059;-75
2021/10/12 09:16:44;;;;;;;4.30;3.47;;;17.10;58.80;;;;;;5067980;28;20027;-75
2021/10/12 09:19:19;;;;;;;7.38;4.05;;;17.00;61.00;;;;;;5067281;28;20029;-75
2021/10/12 09:21:47;;;;;;;5.78;3.13;;;17.20;60.90;;;;;;5067524;28;20376;-75
2021/10/12 09:24:23;;;;;;;7.78;3.05;;;17.40;60.40;;;;;;5068968;28;20028;-75
2021/10/12 09:27:00;;;;;;;6.05;3.13;;;17.70;58.50;;;;;;5058859;28;20012;-75
2021/10/12 09:29:31;;;;;;;3.83;2.97;;;17.90;56.50;;;;;;5062461;28;20043;-75
2021/10/12 09:31:59;;;;;;;12.32;2.53;;;18.10;56.60;;;;;;5059606;28;20064;-76
2021/10/12 09:34:28;;;;;;;5.60;2.85;;;18.30;54.90;;;;;;5066756;28;20051;-76
2021/10/12 09:36:55;;;;;;;5.40;3.15;;;18.60;58.30;;;;;;5067103;28;20047;-76
2021/10/12 09:39:41;;;;;;;7.00;4.70;;;18.60;57.90;;;;;;5067215;28;20016;-76
2021/10/12 09:42:10;;;;;;;9.50;4.93;;;18.40;58.40;;;;;;5066627;28;20491;-76
2021/10/12 09:44:37;;;;;;;5.50;4.35;;;17.70;61.40;;;;;;5064782;28;20032;-75
2021/10/12 09:47:14;;;;;;;5.95;4.13;;;17.40;60.80;;;;;;5067918;28;20586;-75
2021/10/12 09:49:41;;;;;;;7.20;4.05;;;17.30;61.10;;;;;;5066539;28;20016;-76
2021/10/12 09:52:15;;;;;;;4.55;3.85;;;17.30;61.20;;;;;;5067691;28;20538;-75
2021/10/12 09:54:55;;;;;;;6.88;4.05;;;17.50;60.00;;;;;;5065884;28;20035;-75
2021/10/12 09:57:24;;;;;;;4.45;3.67;;;17.70;61.10;;;;;;5067582;28;20063;-75
2021/10/12 09:59:51;;;;;;;6.88;3.03;;;18.10;58.70;;;;;;5067523;28;20028;-75
2021/10/12 10:02:21;;;;;;;6.43;3.20;;;18.40;57.50;;;;;;5066316;28;20021;-75
2021/10/12 10:04:49;;;;;;;5.70;3.17;;;18.70;57.20;;;;;;5066626;28;20035;-76
2021/10/12 10:07:26;;;;;;;3.63;2.85;;;18.80;55.00;;;;;;5067496;28;20028;-76
2021/10/12 10:10:01;;;;;;;5.55;2.80;;;18.80;57.00;;;;;;5065900;28;20028;-75
2021/10/12 10:12:28;;;;;;;3.25;2.95;;;18.80;57.20;;;;;;5066352;28;20063;-75
2021/10/12 10:14:53;;;;;;;4.63;2.80;;;18.90;54.80;;;;;;5067008;28;20122;-76
2021/10/12 10:17:23;;;;;;;8.75;2.85;;;19.00;55.30;;;;;;5067415;28;20115;-77
2021/10/12 10:19:52;;;;;;;4.35;3.40;;;19.40;53.80;;;;;;5062276;28;20067;-76
2021/10/12 10:22:54;;;;;;;4.28;2.80;;;19.70;54.50;;;;;;5067455;28;20478;-76
2021/10/12 10:25:29;;;;;;;5.18;3.42;;;19.90;52.20;;;;;;5056620;28;20037;-76
2021/10/12 10:27:57;;;;;;;6.10;2.90;;;19.90;53.00;;;;;;5057875;28;20368;-75
2021/10/12 10:30:30;;;;;;;4.13;2.53;;;19.80;51.80;;;;;;5063806;28;20115;-75
2021/10/12 10:33:02;;;;;;;5.97;2.78;;;19.60;52.90;;;;;;5067897;28;20067;-78
2021/10/12 10:35:35;;;;;;;5.25;2.80;;;19.40;54.20;;;;;;5067412;28;20020;-77
2021/10/12 10:38:19;;;;;;;4.30;2.95;;;19.50;53.80;;;;;;5066059;28;20020;-77
2021/10/12 10:40:47;;;;;;;5.18;2.92;;;19.60;51.10;;;;;;5068871;28;20479;-84
2021/10/12 10:43:13;;;;;;;5.22;3.30;;;19.70;52.30;;;;;;5069968;28;20036;-78
2021/10/12 10:45:47;;;;;;;8.05;3.35;;;19.80;51.50;;;;;;5067929;28;20047;-75
2021/10/12 10:48:16;;;;;;;4.95;2.70;;;19.90;52.30;;;;;;5069252;28;20105;-81
2021/10/12 10:50:43;;;;;;;7.68;3.05;;;20.00;51.90;;;;;;5068154;28;20047;-77
2021/10/12 10:53:10;;;;;;;5.10;2.90;;;20.30;51.50;;;;;;5069920;28;20020;-77
2021/10/12 10:55:39;;;;;;;5.72;3.10;;;20.50;50.70;;;;;;5068070;28;20020;-75
2021/10/12 10:58:19;;;;;;;5.18;3.17;;;20.70;49.90;;;;;;5069122;28;20052;-77
2021/10/12 11:00:45;;;;;;;4.70;2.75;;;20.70;50.00;;;;;;5072266;28;20027;-74
2021/10/12 11:03:28;;;;;;;3.63;2.72;;;20.50;50.30;;;;;;5070574;28;20016;-77
2021/10/12 11:05:55;;;;;;;6.43;3.25;;;20.40;51.10;;;;;;5070421;28;20116;-78
2021/10/12 11:08:27;;;;;;;5.07;2.85;;;20.40;50.90;;;;;;5072167;28;20036;-80
2021/10/12 11:10:58;;;;;;;3.67;2.90;;;20.40;50.90;;;;;;5073341;28;20055;-77
2021/10/12 11:13:34;;;;;;;3.83;3.28;;;20.50;51.10;;;;;;5073597;28;20029;-79
2021/10/12 11:16:06;;;;;;;7.32;3.60;;;20.60;52.80;;;;;;5072701;28;20016;-75
2021/10/12 11:18:32;;;;;;;5.65;3.33;;;20.70;52.10;;;;;;5072932;28;20486;-75
2021/10/12 11:21:02;;;;;;;5.65;3.35;;;20.90;51.80;;;;;;5073554;28;20074;-76
2021/10/12 11:23:33;;;;;;;8.38;3.15;;;21.00;50.80;;;;;;5074236;28;20470;-76
2021/10/12 11:26:07;;;;;;;3.17;2.70;;;21.20;50.90;;;;;;5073854;28;20020;-77
2021/10/12 11:28:35;;;;;;;6.90;2.92;;;21.20;51.20;;;;;;5073444;28;20040;-77
2021/10/12 11:31:06;;;;;;;4.85;3.10;;;21.30;53.30;;;;;;5071416;28;20105;-76
2021/10/12 11:33:43;;;;;;;3.75;3.10;;;21.40;51.80;;;;;;5072856;28;20028;-75
2021/10/12 11:36:11;;;;;;;5.47;3.17;;;21.60;50.80;;;;;;5071732;28;20040;-76
2021/10/12 11:38:40;;;;;;;4.22;3.15;;;21.50;51.00;;;;;;5069296;28;20550;-76
2021/10/12 11:41:12;;;;;;;6.57;3.35;;;21.40;51.50;;;;;;5059504;28;20016;-76
2021/10/12 11:43:40;;;;;;;3.45;3.10;;;21.30;51.40;;;;;;5065602;28;20037;-77
2021/10/12 11:46:06;;;;;;;5.50;3.22;;;20.90;51.20;;;;;;5069722;28;20050;-76
2021/10/12 11:48:38;;;;;;;8.27;3.70;;;20.50;52.40;;;;;;5070486;28;20147;-76
2021/10/12 11:51:16;;;;;;;;;;;20.10;53.40;;;;;;5073568;28;20016;-77
2021/10/12 11:53:43;;;;;;;4.22;3.55;;;19.70;53.20;;;;;;5072852;28;19914;-75
2021/10/12 11:56:10;;;;;;;10.55;3.80;;;19.20;55.00;;;;;;5073523;28;20107;-76
2021/10/12 11:58:37;;;;;;;6.88;3.70;;;18.80;55.10;;;;;;5071272;28;20029;-76
2021/10/12 12:01:04;;;;;;;7.78;3.90;;;18.70;56.10;;;;;;5071116;28;20025;-76
2021/10/12 12:03:31;;;;;;;9.38;3.50;;;18.60;55.70;;;;;;5072674;28;20024;-76
2021/10/12 12:05:57;;;;;;;6.47;2.97;;;18.60;56.30;;;;;;5071753;28;20017;-78
2021/10/12 12:08:26;;;;;;;6.82;3.53;;;18.60;55.70;;;;;;5069869;28;20040;-76
2021/10/12 12:10:54;;;;;;;5.40;3.60;;;18.60;56.20;;;;;;5068526;28;20032;-76
2021/10/12 12:13:21;;;;;;;5.20;3.42;;;18.60;58.20;;;;;;5069355;28;20028;-77
2021/10/12 12:15:47;;;;;;;5.80;3.33;;;18.70;58.60;;;;;;5068673;28;20047;-75
2021/10/12 12:18:22;;;;;;;8.60;3.80;;;18.80;56.30;;;;;;5068904;28;20050;-77
2021/10/12 12:20:55;;;;;;;5.22;3.78;;;18.70;56.80;;;;;;5069004;28;20381;-76
2021/10/12 12:23:34;;;;;;;8.32;4.00;;;18.80;57.70;;;;;;5069442;28;20174;-75
2021/10/12 12:26:01;;;;;;;8.65;4.18;;;19.10;56.60;;;;;;5069643;28;20062;-76
2021/10/12 12:28:28;;;;;;;3.90;2.95;;;19.40;55.20;;;;;;5067696;28;20609;-77
2021/10/12 12:30:54;;;;;;;9.63;3.45;;;19.50;55.00;;;;;;5069345;28;20032;-76
2021/10/12 12:33:20;;;;;;;8.35;3.53;;;19.60;54.70;;;;;;5067752;28;20411;-74
2021/10/12 12:35:48;;;;;;;4.35;3.28;;;19.60;54.50;;;;;;5068706;28;20050;-76
2021/10/12 12:38:32;;;;;;;6.47;3.10;;;19.40;54.30;;;;;;5072267;28;20024;-76
2021/10/12 12:40:58;;;;;;;9.95;3.42;;;19.20;54.40;;;;;;5069492;28;20052;-76
2021/10/12 12:43:28;;;;;;;7.97;3.53;;;19.00;55.10;;;;;;5068922;28;20390;-76
2021/10/12 12:46:11;;;;;;;3.78;3.38;;;19.10;55.20;;;;;;5065577;28;20127;-78
2021/10/12 12:48:38;;;;;;;6.45;3.70;;;19.20;56.90;;;;;;5069482;28;20379;-76
2021/10/12 12:51:08;;;;;;;4.88;4.00;;;19.10;55.00;;;;;;5070081;28;20028;-77